createdAt,value
2023-02-19T00:00:58.069Z,490.00
2023-02-19T00:01:58.095Z,488.00
2023-02-19T00:02:58.122Z,488.00
2023-02-19T00:03:58.152Z,484.00
2023-02-19T00:04:58.210Z,485.00
2023-02-19T00:05:58.193Z,489.00
2023-02-19T00:06:58.253Z,488.00
2023-02-19T00:07:58.238Z,490.00
2023-02-19T00:08:58.281Z,489.00
2023-02-19T00:09:58.337Z,491.00
2023-02-19T00:10:58.307Z,494.00
2023-02-19T00:11:58.337Z,496.00
2023-02-19T00:12:58.369Z,496.00
2023-02-19T00:13:58.394Z,498.00
2023-02-19T00:14:58.418Z,495.00
2023-02-19T00:15:58.480Z,494.00
2023-02-19T00:16:58.469Z,494.00
2023-02-19T00:17:58.501Z,496.00
2023-02-19T00:18:58.533Z,495.00
2023-02-19T00:19:58.559Z,495.00
2023-02-19T00:20:58.591Z,493.00
2023-02-19T00:21:58.619Z,492.00
2023-02-19T00:22:58.645Z,492.00
2023-02-19T00:23:58.661Z,493.00
2023-02-19T00:24:58.693Z,494.00
2023-02-19T00:26:05.988Z,492.00
2023-02-19T00:26:59.686Z,491.00
2023-02-19T00:27:58.723Z,491.00
2023-02-19T00:28:58.611Z,493.00
2023-02-19T00:29:58.622Z,492.00
2023-02-19T00:30:58.554Z,493.00
2023-02-19T00:31:58.653Z,493.00
2023-02-19T00:32:58.456Z,495.00
2023-02-19T00:33:58.424Z,496.00
2023-02-19T00:34:58.382Z,494.00
2023-02-19T00:35:58.334Z,494.00
2023-02-19T00:36:58.371Z,494.00
2023-02-19T00:37:58.386Z,492.00
2023-02-19T00:38:58.430Z,492.00
2023-02-19T00:39:58.468Z,489.00
2023-02-19T00:40:58.481Z,491.00
2023-02-19T00:41:58.518Z,491.00
2023-02-19T00:42:58.546Z,493.00
2023-02-19T00:43:58.562Z,494.00
2023-02-19T00:44:58.587Z,495.00
2023-02-19T00:45:58.668Z,493.00
2023-02-19T00:46:58.641Z,489.00
2023-02-19T00:47:58.651Z,489.00
2023-02-19T00:48:58.687Z,491.00
2023-02-19T00:49:59.233Z,491.00
2023-02-19T00:50:58.747Z,491.00
2023-02-19T00:51:58.770Z,490.00
2023-02-19T00:52:58.797Z,487.00
2023-02-19T00:53:58.838Z,489.00
2023-02-19T00:54:58.852Z,487.00
2023-02-19T00:55:58.889Z,488.00
2023-02-19T00:56:58.997Z,488.00
2023-02-19T00:57:58.940Z,488.00
2023-02-19T00:58:59.036Z,489.00
2023-02-19T00:59:58.995Z,488.00
2023-02-19T01:00:59.023Z,489.00
2023-02-19T01:01:59.105Z,486.00
2023-02-19T01:02:59.081Z,485.00
2023-02-19T01:03:59.116Z,486.00
2023-02-19T01:04:59.258Z,482.00
2023-02-19T01:05:59.162Z,483.00
2023-02-19T01:06:59.194Z,481.00
2023-02-19T01:07:59.228Z,480.00
2023-02-19T01:08:59.250Z,481.00
2023-02-19T01:09:59.284Z,481.00
2023-02-19T01:10:59.297Z,481.00
2023-02-19T01:12:00.224Z,480.00
2023-02-19T01:12:59.364Z,480.00
2023-02-19T01:13:59.394Z,483.00
2023-02-19T01:14:59.420Z,484.00
2023-02-19T01:15:59.470Z,482.00
2023-02-19T01:16:59.477Z,481.00
2023-02-19T01:17:59.521Z,480.00
2023-02-19T01:18:59.549Z,480.00
2023-02-19T01:19:59.587Z,480.00
2023-02-19T01:20:59.631Z,481.00
2023-02-19T01:21:59.776Z,482.00
2023-02-19T01:22:59.734Z,484.00
2023-02-19T01:23:59.765Z,487.00
2023-02-19T01:24:59.742Z,485.00
2023-02-19T01:25:59.824Z,483.00
2023-02-19T01:26:59.867Z,485.00
2023-02-19T01:27:59.834Z,485.00
2023-02-19T01:29:00.728Z,485.00
2023-02-19T01:29:59.909Z,487.00
2023-02-19T01:30:59.966Z,487.00
2023-02-19T01:32:00.038Z,489.00
2023-02-19T01:32:59.989Z,489.00
2023-02-19T01:34:00.119Z,491.00
2023-02-19T01:35:00.076Z,491.00
2023-02-19T01:36:00.102Z,491.00
2023-02-19T01:37:00.123Z,493.00
2023-02-19T01:38:00.156Z,492.00
2023-02-19T01:39:00.180Z,493.00
2023-02-19T01:40:00.220Z,494.00
2023-02-19T01:41:00.248Z,493.00
2023-02-19T01:42:00.313Z,494.00
2023-02-19T01:43:00.320Z,495.00
2023-02-19T01:44:00.357Z,493.00
2023-02-19T01:45:00.359Z,494.00
2023-02-19T01:46:00.393Z,493.00
2023-02-19T01:47:00.514Z,492.00
2023-02-19T01:48:00.468Z,495.00
2023-02-19T01:49:00.479Z,495.00
2023-02-19T01:50:00.509Z,497.00
2023-02-19T01:51:00.549Z,498.00
2023-02-19T01:52:00.591Z,496.00
2023-02-19T01:53:00.600Z,497.00
2023-02-19T01:54:00.624Z,500.00
2023-02-19T01:55:00.662Z,498.00
2023-02-19T01:56:00.697Z,497.00
2023-02-19T01:57:00.783Z,497.00
2023-02-19T01:58:00.738Z,496.00
2023-02-19T01:59:00.772Z,494.00
2023-02-19T02:00:01.058Z,494.00
2023-02-19T02:01:00.848Z,491.00
2023-02-19T02:02:00.876Z,491.00
2023-02-19T02:03:00.877Z,491.00
2023-02-19T02:04:00.888Z,490.00
2023-02-19T02:05:00.902Z,489.00
2023-02-19T02:06:00.905Z,489.00
2023-02-19T02:07:00.939Z,488.00
2023-02-19T02:08:00.966Z,486.00
2023-02-19T02:09:01.251Z,487.00
2023-02-19T02:10:01.016Z,487.00
2023-02-19T02:11:01.734Z,488.00
2023-02-19T02:12:01.087Z,490.00
2023-02-19T02:13:01.135Z,491.00
2023-02-19T02:14:01.174Z,490.00
2023-02-19T02:15:01.193Z,489.00
2023-02-19T02:16:01.236Z,488.00
2023-02-19T02:17:01.275Z,487.00
2023-02-19T02:18:02.245Z,485.00
2023-02-19T02:19:01.357Z,488.00
2023-02-19T02:20:01.392Z,486.00
2023-02-19T02:21:01.426Z,484.00
2023-02-19T02:22:01.475Z,484.00
2023-02-19T02:23:01.509Z,482.00
2023-02-19T02:24:01.529Z,482.00
2023-02-19T02:25:01.560Z,480.00
2023-02-19T02:26:01.602Z,481.00
2023-02-19T02:27:01.642Z,482.00
2023-02-19T02:28:01.685Z,485.00
2023-02-19T02:29:01.706Z,485.00
2023-02-19T02:30:01.781Z,485.00
2023-02-19T02:31:01.799Z,484.00
2023-02-19T02:32:01.942Z,483.00
2023-02-19T02:33:01.861Z,483.00
2023-02-19T02:34:01.914Z,483.00
2023-02-19T02:35:01.949Z,485.00
2023-02-19T02:36:02.014Z,487.00
2023-02-19T02:37:02.063Z,487.00
2023-02-19T02:38:02.073Z,489.00
2023-02-19T02:39:02.110Z,488.00
2023-02-19T02:40:02.142Z,488.00
2023-02-19T02:41:02.189Z,489.00
2023-02-19T02:42:02.222Z,488.00
2023-02-19T02:43:02.263Z,487.00
2023-02-19T02:44:02.323Z,487.00
2023-02-19T02:45:02.317Z,488.00
2023-02-19T02:46:02.378Z,491.00
2023-02-19T02:47:02.384Z,490.00
2023-02-19T02:48:02.459Z,491.00
2023-02-19T02:49:02.457Z,490.00
2023-02-19T02:50:02.493Z,487.00
2023-02-19T02:51:02.561Z,489.00
2023-02-19T02:52:02.571Z,489.00
2023-02-19T02:53:02.612Z,487.00
2023-02-19T02:54:02.644Z,488.00
2023-02-19T02:55:02.873Z,488.00
2023-02-19T02:56:02.692Z,489.00
2023-02-19T02:57:02.736Z,491.00
2023-02-19T02:58:02.781Z,493.00
2023-02-19T02:59:02.817Z,491.00
2023-02-19T03:00:02.858Z,490.00
2023-02-19T03:01:02.981Z,487.00
2023-02-19T03:02:03.074Z,486.00
2023-02-19T03:03:02.997Z,485.00
2023-02-19T03:04:03.052Z,487.00
2023-02-19T03:05:03.130Z,486.00
2023-02-19T03:06:03.129Z,484.00
2023-02-19T03:07:03.154Z,482.00
2023-02-19T03:08:03.187Z,482.00
2023-02-19T03:09:03.217Z,482.00
2023-02-19T03:10:03.315Z,483.00
2023-02-19T03:11:03.307Z,482.00
2023-02-19T03:12:03.348Z,483.00
2023-02-19T03:13:03.394Z,483.00
2023-02-19T03:14:03.511Z,482.00
2023-02-19T03:15:03.489Z,480.00
2023-02-19T03:16:03.543Z,481.00
2023-02-19T03:17:03.609Z,480.00
2023-02-19T03:18:03.630Z,479.00
2023-02-19T03:19:03.679Z,477.00
2023-02-19T03:20:03.712Z,477.00
2023-02-19T03:21:03.768Z,477.00
2023-02-19T03:22:03.808Z,476.00
2023-02-19T03:23:03.877Z,477.00
2023-02-19T03:24:04.844Z,476.00
2023-02-19T03:25:03.939Z,473.00
2023-02-19T03:26:04.037Z,472.00
2023-02-19T03:27:04.045Z,472.00
2023-02-19T03:28:04.058Z,473.00
2023-02-19T03:29:04.109Z,474.00
2023-02-19T03:30:04.165Z,473.00
2023-02-19T03:31:04.205Z,471.00
2023-02-19T03:32:04.297Z,472.00
2023-02-19T03:33:04.220Z,472.00
2023-02-19T03:34:04.283Z,476.00
2023-02-19T03:35:04.305Z,476.00
2023-02-19T03:36:04.328Z,477.00
2023-02-19T03:37:04.351Z,476.00
2023-02-19T03:38:04.430Z,476.00
2023-02-19T03:39:04.410Z,474.00
2023-02-19T03:40:04.455Z,473.00
2023-02-19T03:41:04.488Z,471.00
2023-02-19T03:42:04.527Z,473.00
2023-02-19T03:43:04.559Z,475.00
2023-02-19T03:44:04.599Z,474.00
2023-02-19T03:45:04.654Z,472.00
2023-02-19T03:46:04.730Z,473.00
2023-02-19T03:47:04.754Z,472.00
2023-02-19T03:48:04.782Z,472.00
2023-02-19T03:49:04.841Z,471.00
2023-02-19T03:50:04.880Z,472.00
2023-02-19T03:51:04.915Z,471.00
2023-02-19T03:52:04.957Z,470.00
2023-02-19T03:53:05.018Z,474.00
2023-02-19T03:54:05.061Z,474.00
2023-02-19T03:55:05.113Z,473.00
2023-02-19T03:56:05.117Z,474.00
2023-02-19T03:57:05.151Z,476.00
2023-02-19T03:58:05.176Z,474.00
2023-02-19T03:59:05.218Z,476.00
2023-02-19T04:00:05.353Z,477.00
2023-02-19T04:01:05.321Z,477.00
2023-02-19T04:02:05.386Z,477.00
2023-02-19T04:03:05.378Z,475.00
2023-02-19T05:16:07.872Z,473.00
2023-02-19T05:18:07.878Z,471.00
2023-02-19T05:19:07.892Z,473.00
2023-02-19T05:20:07.928Z,473.00
2023-02-19T05:21:08.299Z,473.00
2023-02-19T05:22:07.985Z,471.00
2023-02-19T05:23:08.014Z,469.00
2023-02-19T05:24:08.072Z,469.00
2023-02-19T13:30:12.493Z,474.00
2023-02-19T13:32:12.432Z,472.00
2023-02-19T13:33:12.324Z,474.00
2023-02-19T13:34:12.281Z,475.00
2023-02-19T13:36:12.265Z,476.00
2023-02-19T13:37:12.236Z,476.00
2023-02-19T13:38:12.247Z,478.00
2023-02-19T13:39:12.257Z,478.00
2023-02-19T13:40:12.238Z,479.00
2023-02-19T13:41:12.463Z,479.00
2023-02-19T13:42:12.219Z,480.00
2023-02-19T13:43:12.206Z,481.00
2023-02-19T13:44:12.215Z,479.00
2023-02-19T13:45:12.157Z,478.00
2023-02-19T13:46:12.149Z,477.00
2023-02-19T13:47:12.085Z,476.00
2023-02-19T13:48:12.049Z,476.00
2023-02-19T13:49:12.023Z,480.00
2023-02-19T13:50:11.997Z,479.00
2023-02-19T13:51:12.262Z,480.00
2023-02-19T13:52:11.948Z,479.00
2023-02-19T13:53:11.938Z,477.00
2023-02-19T13:54:11.945Z,477.00
2023-02-19T13:55:12.073Z,480.00
2023-02-19T13:56:11.945Z,479.00
2023-02-19T13:57:11.965Z,479.00
2023-02-19T13:58:11.943Z,479.00
2023-02-19T13:59:11.956Z,479.00
2023-02-19T14:00:11.957Z,481.00
2023-02-19T14:01:12.392Z,482.00
2023-02-19T14:02:11.961Z,484.00
2023-02-19T14:03:11.919Z,481.00
2023-02-19T14:04:11.893Z,480.00
2023-02-19T14:05:11.898Z,480.00
2023-02-19T14:06:11.932Z,481.00
2023-02-19T14:07:11.847Z,480.00
2023-02-19T14:08:11.834Z,480.00
2023-02-19T14:09:11.825Z,478.00
2023-02-19T14:10:11.808Z,479.00
2023-02-19T14:11:12.020Z,480.00
2023-02-19T14:12:13.621Z,480.00
2023-02-19T14:13:11.775Z,479.00
2023-02-19T14:14:11.655Z,478.00
2023-02-19T14:15:11.569Z,480.00
2023-02-19T14:16:11.544Z,480.00
2023-02-19T14:17:11.456Z,480.00
2023-02-19T14:18:11.388Z,480.00
2023-02-19T14:19:11.322Z,479.00
2023-02-19T14:20:11.263Z,480.00
2023-02-19T14:21:11.404Z,481.00
2023-02-19T14:22:11.217Z,480.00
2023-02-19T14:23:11.070Z,480.00
2023-02-19T14:24:11.007Z,480.00
2023-02-19T14:25:10.940Z,482.00
2023-02-19T14:26:10.897Z,481.00
2023-02-19T14:27:10.828Z,482.00
2023-02-19T14:28:10.762Z,481.00
2023-02-19T14:29:10.679Z,482.00
2023-02-19T14:30:10.696Z,484.00
2023-02-19T14:31:11.074Z,485.00
2023-02-19T14:32:11.040Z,484.00
2023-02-19T14:33:11.341Z,485.00
2023-02-19T14:34:10.367Z,485.00
2023-02-19T14:35:10.304Z,486.00
2023-02-19T14:36:10.323Z,486.00
2023-02-19T14:37:10.184Z,486.00
2023-02-19T14:38:11.001Z,486.00
2023-02-19T14:39:10.060Z,487.00
2023-02-19T14:40:10.003Z,484.00
2023-02-19T14:41:10.340Z,483.00
2023-02-19T14:42:09.903Z,482.00
2023-02-19T14:43:10.506Z,481.00
2023-02-19T14:44:09.777Z,480.00
2023-02-19T14:45:09.725Z,483.00
2023-02-19T14:46:09.725Z,487.00
2023-02-19T14:47:09.635Z,489.00
2023-02-19T14:48:09.528Z,486.00
2023-02-19T14:49:09.467Z,487.00
2023-02-19T14:50:09.394Z,485.00
2023-02-19T14:51:09.715Z,485.00
2023-02-19T14:52:09.260Z,487.00
2023-02-19T14:53:09.197Z,485.00
2023-02-19T14:54:09.149Z,482.00
2023-02-19T14:55:09.078Z,478.00
2023-02-19T14:56:09.019Z,479.00
2023-02-19T14:57:08.955Z,477.00
2023-02-19T14:58:08.904Z,477.00
2023-02-19T15:00:08.782Z,477.00
2023-02-19T15:01:08.982Z,477.00
2023-02-19T15:02:08.672Z,478.00
2023-02-19T15:10:08.312Z,480.00
2023-02-19T15:11:08.301Z,481.00
2023-02-19T15:12:08.233Z,481.00
2023-02-19T15:13:08.199Z,482.00
2023-02-19T15:14:08.160Z,480.00
2023-02-19T15:15:08.117Z,482.00
2023-02-19T15:16:08.118Z,482.00
2023-02-19T15:17:08.036Z,483.00
2023-02-19T15:18:08.004Z,483.00
2023-02-19T15:19:07.978Z,481.00
2023-02-19T15:20:07.921Z,482.00
2023-02-19T15:21:07.906Z,480.00
2023-02-19T15:22:07.817Z,480.00
2023-02-19T15:31:08.112Z,478.00
2023-02-19T19:43:02.923Z,500.00
2023-02-19T19:44:02.908Z,500.00
2023-02-19T19:45:02.941Z,497.00
2023-02-19T19:46:02.894Z,496.00
2023-02-19T19:47:02.853Z,498.00
2023-02-19T19:48:02.853Z,497.00
2023-02-19T19:49:02.894Z,496.00
2023-02-19T19:50:02.826Z,497.00
2023-02-19T19:51:02.862Z,498.00
2023-02-19T19:52:02.867Z,499.00
2023-02-19T19:53:02.795Z,502.00
2023-02-19T19:54:02.789Z,500.00
2023-02-19T19:55:02.803Z,496.00
2023-02-19T19:56:02.766Z,498.00
2023-02-19T19:57:02.759Z,500.00
2023-02-19T19:58:02.752Z,501.00
2023-02-19T19:59:02.738Z,501.00
2023-02-19T20:00:02.722Z,500.00
2023-02-19T20:01:02.705Z,503.00
2023-02-19T20:02:02.705Z,503.00
2023-02-19T20:03:02.717Z,504.00
2023-02-19T20:04:02.670Z,503.00
2023-02-19T20:05:02.662Z,501.00
2023-02-19T20:06:02.648Z,501.00
2023-02-19T20:07:02.663Z,500.00
2023-02-19T20:08:02.620Z,499.00
2023-02-19T20:09:02.600Z,501.00
2023-02-19T20:10:02.582Z,499.00
2023-02-19T20:11:02.563Z,500.00
2023-02-19T20:12:02.692Z,498.00
2023-02-19T20:13:02.543Z,499.00
2023-02-19T20:14:02.549Z,495.00
2023-02-19T20:15:02.515Z,495.00
2023-02-19T20:39:02.346Z,505.00
2023-02-19T20:40:02.346Z,504.00
2023-02-19T20:41:02.318Z,503.00
2023-02-19T20:42:02.314Z,501.00
2023-02-19T20:43:03.137Z,503.00
2023-02-19T20:44:02.304Z,504.00
2023-02-19T20:45:02.296Z,508.00
2023-02-19T20:46:02.293Z,507.00
2023-02-19T20:47:02.292Z,504.00
2023-02-19T20:48:02.369Z,503.00
2023-02-19T20:49:02.287Z,500.00
2023-02-19T20:50:02.261Z,501.00
2023-02-19T20:51:02.254Z,500.00
2023-02-19T20:52:02.268Z,500.00
2023-02-19T20:53:02.251Z,498.00
2023-02-19T20:54:02.242Z,498.00
2023-02-19T20:55:02.240Z,498.00
2023-02-19T20:56:02.223Z,497.00
2023-02-19T20:57:02.245Z,496.00
2023-02-19T20:58:02.221Z,495.00
2023-02-19T20:59:02.208Z,494.00
2023-02-19T21:00:02.216Z,496.00
2023-02-19T21:01:02.209Z,496.00
2023-02-19T21:02:02.216Z,496.00
2023-02-19T21:03:02.243Z,496.00
2023-02-19T21:04:02.202Z,494.00
2023-02-19T21:05:02.230Z,495.00
2023-02-19T21:06:02.202Z,493.00
2023-02-19T21:07:02.193Z,496.00
2023-02-19T21:08:02.215Z,496.00
2023-02-19T21:09:02.197Z,493.00
2023-02-19T21:10:02.277Z,492.00
2023-02-19T21:11:02.198Z,491.00
2023-02-19T21:12:02.205Z,491.00
2023-02-19T21:13:02.193Z,494.00
2023-02-19T21:14:02.213Z,493.00
2023-02-19T21:15:02.203Z,495.00
2023-02-19T21:16:02.204Z,494.00
2023-02-19T21:17:02.221Z,496.00
2023-02-19T21:18:02.190Z,497.00
2023-02-19T21:19:02.198Z,495.00
2023-02-19T21:20:02.203Z,493.00
2023-02-19T21:21:02.232Z,490.00
2023-02-19T21:22:02.237Z,489.00
2023-02-19T21:23:02.208Z,490.00
2023-02-19T21:24:02.245Z,488.00
2023-02-19T21:25:02.185Z,487.00
2023-02-19T21:26:02.191Z,488.00
2023-02-19T21:27:02.199Z,489.00
2023-02-19T21:28:02.226Z,489.00
2023-02-19T21:29:02.283Z,489.00
2023-02-19T21:30:02.209Z,491.00
2023-02-19T21:31:02.209Z,497.00
2023-02-19T21:32:02.245Z,499.00
2023-02-19T21:33:02.200Z,498.00
2023-02-19T21:34:02.189Z,500.00
2023-02-19T21:35:02.210Z,497.00
2023-02-19T21:36:02.224Z,497.00
2023-02-19T21:37:02.194Z,497.00
2023-02-19T21:38:02.372Z,497.00
2023-02-19T21:39:02.237Z,499.00
2023-02-19T21:40:02.224Z,499.00
2023-02-19T21:41:02.237Z,497.00
2023-02-19T21:42:02.490Z,497.00
2023-02-19T21:43:02.229Z,498.00
2023-02-19T21:44:02.320Z,496.00
2023-02-19T21:45:02.253Z,495.00
2023-02-19T21:46:02.329Z,496.00
2023-02-19T21:47:02.263Z,494.00
2023-02-19T21:48:02.279Z,494.00
2023-02-19T21:49:02.286Z,496.00
2023-02-19T21:50:02.286Z,496.00
2023-02-19T21:51:02.291Z,495.00
2023-02-19T21:52:02.297Z,497.00
2023-02-19T21:53:02.290Z,497.00
2023-02-19T21:54:02.308Z,498.00
2023-02-19T21:55:02.315Z,500.00
2023-02-19T21:56:02.312Z,498.00
2023-02-19T21:57:02.317Z,498.00
2023-02-19T21:58:03.227Z,500.00
2023-02-19T21:59:02.301Z,498.00
2023-02-19T22:00:02.316Z,499.00
2023-02-19T22:01:02.384Z,498.00
2023-02-19T22:02:02.334Z,497.00
2023-02-19T22:03:02.424Z,497.00
2023-02-19T22:04:02.344Z,498.00
2023-02-19T22:05:02.342Z,497.00
2023-02-19T22:06:02.351Z,497.00
2023-02-19T22:07:02.428Z,496.00
2023-02-19T22:08:02.432Z,492.00
2023-02-19T22:09:02.369Z,490.00
2023-02-19T22:10:02.380Z,490.00
2023-02-19T22:11:02.396Z,490.00
2023-02-19T22:12:02.403Z,491.00
2023-02-19T22:13:02.415Z,494.00
2023-02-19T22:14:02.415Z,495.00
2023-02-19T22:15:02.425Z,494.00
2023-02-19T22:16:02.474Z,496.00
2023-02-19T22:17:02.453Z,495.00
2023-02-19T22:18:02.460Z,497.00
2023-02-19T22:19:02.476Z,496.00
2023-02-19T22:20:02.493Z,496.00
2023-02-19T22:21:02.507Z,496.00
2023-02-19T22:22:02.512Z,494.00
2023-02-19T22:23:02.577Z,492.00
2023-02-19T22:24:02.533Z,491.00
2023-02-19T22:25:02.536Z,493.00
2023-02-19T22:26:02.557Z,494.00
2023-02-19T22:27:02.560Z,495.00
2023-02-19T22:28:02.565Z,496.00
2023-02-19T22:29:02.587Z,497.00
2023-02-19T22:30:02.633Z,494.00
2023-02-19T22:31:02.607Z,496.00
2023-02-19T22:32:02.688Z,498.00
2023-02-19T22:33:02.626Z,498.00
2023-02-19T22:34:02.619Z,495.00
2023-02-19T22:35:02.632Z,493.00
2023-02-19T22:36:02.664Z,495.00
2023-02-19T22:37:02.646Z,495.00
2023-02-19T22:38:02.659Z,494.00
2023-02-19T22:39:02.679Z,498.00
2023-02-19T22:40:02.676Z,499.00
2023-02-19T22:41:02.690Z,500.00
2023-02-19T22:42:02.700Z,501.00
2023-02-19T22:43:02.710Z,499.00
2023-02-19T22:44:02.721Z,500.00
2023-02-19T22:45:02.721Z,498.00
2023-02-19T22:46:02.834Z,498.00
2023-02-19T22:47:02.744Z,500.00
2023-02-19T22:48:02.765Z,500.00
2023-02-19T22:49:02.757Z,497.00
2023-02-19T22:50:02.775Z,496.00
2023-02-19T22:51:02.769Z,499.00
2023-02-19T22:52:02.792Z,497.00
2023-02-19T22:53:02.832Z,498.00
2023-02-19T22:54:02.806Z,500.00
2023-02-19T22:55:02.894Z,500.00
2023-02-19T22:56:02.837Z,500.00
2023-02-19T22:57:02.856Z,502.00
2023-02-19T22:58:02.869Z,504.00
2023-02-19T22:59:02.872Z,504.00
2023-02-19T23:00:02.887Z,503.00
2023-02-19T23:01:02.968Z,503.00
